sensor_id;sensor_type;location;lat;lon;timestamp;P1;durP1;ratioP1;P2;durP2;ratioP2
38609;SDS011;24367;51.640;9.566;2024-03-02T00:01:45;2.35;;;1.60;;
38609;SDS011;24367;51.640;9.566;2024-03-02T00:04:11;2.42;;;1.63;;
38609;SDS011;24367;51.640;9.566;2024-03-02T00:06:38;2.33;;;1.52;;
38609;SDS011;24367;51.640;9.566;2024-03-02T00:09:04;3.00;;;1.75;;
38609;SDS011;24367;51.640;9.566;2024-03-02T00:11:33;4.13;;;1.65;;
38609;SDS011;24367;51.640;9.566;2024-03-02T00:14:00;3.30;;;1.67;;
38609;SDS011;24367;51.640;9.566;2024-03-02T00:16:29;2.70;;;1.70;;
38609;SDS011;24367;51.640;9.566;2024-03-02T00:18:58;2.83;;;1.80;;
38609;SDS011;24367;51.640;9.566;2024-03-02T00:21:27;2.67;;;1.80;;
38609;SDS011;24367;51.640;9.566;2024-03-02T00:23:56;2.40;;;1.70;;
38609;SDS011;24367;51.640;9.566;2024-03-02T00:26:22;2.50;;;1.70;;
38609;SDS011;24367;51.640;9.566;2024-03-02T00:28:49;2.90;;;1.83;;
38609;SDS011;24367;51.640;9.566;2024-03-02T00:31:16;2.28;;;1.60;;
38609;SDS011;24367;51.640;9.566;2024-03-02T00:33:46;2.50;;;1.52;;
38609;SDS011;24367;51.640;9.566;2024-03-02T00:36:15;2.40;;;1.60;;
38609;SDS011;24367;51.640;9.566;2024-03-02T00:38:44;2.80;;;1.63;;
38609;SDS011;24367;51.640;9.566;2024-03-02T00:41:15;3.15;;;2.05;;
38609;SDS011;24367;51.640;9.566;2024-03-02T00:43:42;2.70;;;1.80;;
38609;SDS011;24367;51.640;9.566;2024-03-02T00:46:09;2.60;;;1.70;;
38609;SDS011;24367;51.640;9.566;2024-03-02T00:48:37;2.47;;;1.63;;
38609;SDS011;24367;51.640;9.566;2024-03-02T00:51:04;2.90;;;1.67;;
38609;SDS011;24367;51.640;9.566;2024-03-02T00:53:31;2.55;;;1.60;;
38609;SDS011;24367;51.640;9.566;2024-03-02T00:55:58;2.97;;;1.95;;
38609;SDS011;24367;51.640;9.566;2024-03-02T00:58:25;2.00;;;1.42;;
38609;SDS011;24367;51.640;9.566;2024-03-02T01:00:52;3.05;;;1.58;;
38609;SDS011;24367;51.640;9.566;2024-03-02T01:03:18;2.72;;;1.45;;
38609;SDS011;24367;51.640;9.566;2024-03-02T01:05:45;2.70;;;1.80;;
38609;SDS011;24367;51.640;9.566;2024-03-02T01:08:11;2.72;;;1.65;;
38609;SDS011;24367;51.640;9.566;2024-03-02T01:10:39;2.78;;;1.88;;
38609;SDS011;24367;51.640;9.566;2024-03-02T01:13:06;3.55;;;1.70;;
38609;SDS011;24367;51.640;9.566;2024-03-02T01:15:33;3.72;;;1.70;;
38609;SDS011;24367;51.640;9.566;2024-03-02T01:17:59;2.75;;;1.58;;
38609;SDS011;24367;51.640;9.566;2024-03-02T01:20:26;3.03;;;1.73;;
38609;SDS011;24367;51.640;9.566;2024-03-02T01:22:52;2.55;;;1.70;;
38609;SDS011;24367;51.640;9.566;2024-03-02T01:25:18;2.22;;;1.60;;
38609;SDS011;24367;51.640;9.566;2024-03-02T01:27:46;2.30;;;1.48;;
38609;SDS011;24367;51.640;9.566;2024-03-02T01:30:13;2.33;;;1.50;;
38609;SDS011;24367;51.640;9.566;2024-03-02T01:32:40;2.92;;;1.70;;
38609;SDS011;24367;51.640;9.566;2024-03-02T01:35:06;3.10;;;1.45;;
38609;SDS011;24367;51.640;9.566;2024-03-02T01:37:34;2.60;;;1.80;;
38609;SDS011;24367;51.640;9.566;2024-03-02T01:40:00;2.92;;;1.70;;
38609;SDS011;24367;51.640;9.566;2024-03-02T01:42:27;2.10;;;1.50;;
38609;SDS011;24367;51.640;9.566;2024-03-02T01:44:55;2.67;;;1.75;;
38609;SDS011;24367;51.640;9.566;2024-03-02T01:47:21;2.65;;;1.90;;
38609;SDS011;24367;51.640;9.566;2024-03-02T01:49:48;2.40;;;1.48;;
38609;SDS011;24367;51.640;9.566;2024-03-02T01:52:15;2.40;;;1.77;;
38609;SDS011;24367;51.640;9.566;2024-03-02T01:54:42;3.40;;;1.50;;
38609;SDS011;24367;51.640;9.566;2024-03-02T01:57:09;2.38;;;1.58;;
38609;SDS011;24367;51.640;9.566;2024-03-02T01:59:35;2.58;;;1.40;;
38609;SDS011;24367;51.640;9.566;2024-03-02T02:02:03;2.28;;;1.42;;
38609;SDS011;24367;51.640;9.566;2024-03-02T02:04:30;2.55;;;1.67;;
38609;SDS011;24367;51.640;9.566;2024-03-02T02:06:57;2.63;;;1.40;;
38609;SDS011;24367;51.640;9.566;2024-03-02T02:09:23;2.38;;;1.60;;
38609;SDS011;24367;51.640;9.566;2024-03-02T02:11:50;2.17;;;1.40;;
38609;SDS011;24367;51.640;9.566;2024-03-02T02:14:16;2.38;;;1.63;;
38609;SDS011;24367;51.640;9.566;2024-03-02T02:16:42;2.40;;;1.67;;
38609;SDS011;24367;51.640;9.566;2024-03-02T02:19:10;2.28;;;1.70;;
38609;SDS011;24367;51.640;9.566;2024-03-02T02:21:38;2.38;;;1.52;;
38609;SDS011;24367;51.640;9.566;2024-03-02T02:24:08;2.08;;;1.60;;
38609;SDS011;24367;51.640;9.566;2024-03-02T02:26:34;4.20;;;1.45;;
38609;SDS011;24367;51.640;9.566;2024-03-02T02:29:01;2.20;;;1.40;;
38609;SDS011;24367;51.640;9.566;2024-03-02T02:31:35;2.72;;;1.65;;
38609;SDS011;24367;51.640;9.566;2024-03-02T02:34:03;2.35;;;1.60;;
38609;SDS011;24367;51.640;9.566;2024-03-02T02:36:29;2.15;;;1.52;;
38609;SDS011;24367;51.640;9.566;2024-03-02T02:38:57;2.30;;;1.27;;
38609;SDS011;24367;51.640;9.566;2024-03-02T02:41:24;2.38;;;1.50;;
38609;SDS011;24367;51.640;9.566;2024-03-02T02:43:50;1.98;;;1.30;;
38609;SDS011;24367;51.640;9.566;2024-03-02T02:46:17;2.10;;;1.40;;
38609;SDS011;24367;51.640;9.566;2024-03-02T02:48:43;2.15;;;1.50;;
38609;SDS011;24367;51.640;9.566;2024-03-02T02:51:10;2.28;;;1.52;;
38609;SDS011;24367;51.640;9.566;2024-03-02T02:53:36;2.42;;;1.55;;
38609;SDS011;24367;51.640;9.566;2024-03-02T02:56:06;2.30;;;1.60;;
38609;SDS011;24367;51.640;9.566;2024-03-02T02:58:33;2.00;;;1.30;;
38609;SDS011;24367;51.640;9.566;2024-03-02T03:00:59;2.30;;;1.67;;
38609;SDS011;24367;51.640;9.566;2024-03-02T03:03:26;2.10;;;1.42;;
38609;SDS011;24367;51.640;9.566;2024-03-02T03:05:52;2.20;;;1.42;;
38609;SDS011;24367;51.640;9.566;2024-03-02T03:08:18;2.05;;;1.40;;
38609;SDS011;24367;51.640;9.566;2024-03-02T03:10:45;2.65;;;1.67;;
38609;SDS011;24367;51.640;9.566;2024-03-02T03:13:13;2.33;;;1.48;;
38609;SDS011;24367;51.640;9.566;2024-03-02T03:15:39;2.70;;;1.27;;
38609;SDS011;24367;51.640;9.566;2024-03-02T03:18:06;2.13;;;1.60;;
38609;SDS011;24367;51.640;9.566;2024-03-02T03:20:32;2.13;;;1.30;;
38609;SDS011;24367;51.640;9.566;2024-03-02T03:22:59;2.53;;;1.70;;
38609;SDS011;24367;51.640;9.566;2024-03-02T03:25:26;2.08;;;1.33;;
38609;SDS011;24367;51.640;9.566;2024-03-02T03:27:52;2.33;;;1.60;;
38609;SDS011;24367;51.640;9.566;2024-03-02T03:30:20;2.15;;;1.40;;
38609;SDS011;24367;51.640;9.566;2024-03-02T03:32:46;1.48;;;1.13;;
38609;SDS011;24367;51.640;9.566;2024-03-02T03:35:14;1.90;;;1.42;;
38609;SDS011;24367;51.640;9.566;2024-03-02T03:37:41;2.25;;;1.60;;
38609;SDS011;24367;51.640;9.566;2024-03-02T03:40:07;2.42;;;1.70;;
38609;SDS011;24367;51.640;9.566;2024-03-02T03:42:36;2.20;;;1.40;;
38609;SDS011;24367;51.640;9.566;2024-03-02T03:45:02;2.00;;;1.30;;
38609;SDS011;24367;51.640;9.566;2024-03-02T03:47:32;2.33;;;1.60;;
38609;SDS011;24367;51.640;9.566;2024-03-02T03:49:58;1.80;;;1.30;;
38609;SDS011;24367;51.640;9.566;2024-03-02T03:52:25;2.85;;;1.50;;
38609;SDS011;24367;51.640;9.566;2024-03-02T03:54:51;2.05;;;1.30;;
38609;SDS011;24367;51.640;9.566;2024-03-02T03:57:18;2.28;;;1.58;;
38609;SDS011;24367;51.640;9.566;2024-03-02T03:59:44;1.98;;;1.50;;
38609;SDS011;24367;51.640;9.566;2024-03-02T04:02:11;2.53;;;1.48;;
38609;SDS011;24367;51.640;9.566;2024-03-02T04:04:39;2.15;;;1.55;;
38609;SDS011;24367;51.640;9.566;2024-03-02T04:07:05;2.60;;;1.58;;
38609;SDS011;24367;51.640;9.566;2024-03-02T04:09:32;2.35;;;1.45;;
38609;SDS011;24367;51.640;9.566;2024-03-02T04:11:58;1.85;;;1.20;;
38609;SDS011;24367;51.640;9.566;2024-03-02T04:14:25;2.17;;;1.58;;
38609;SDS011;24367;51.640;9.566;2024-03-02T04:16:51;2.42;;;1.40;;
38609;SDS011;24367;51.640;9.566;2024-03-02T04:19:18;2.30;;;1.48;;
38609;SDS011;24367;51.640;9.566;2024-03-02T04:21:45;2.78;;;1.55;;
38609;SDS011;24367;51.640;9.566;2024-03-02T04:24:12;2.47;;;1.60;;
38609;SDS011;24367;51.640;9.566;2024-03-02T04:26:38;2.53;;;1.50;;
38609;SDS011;24367;51.640;9.566;2024-03-02T04:29:05;2.13;;;1.40;;
38609;SDS011;24367;51.640;9.566;2024-03-02T04:31:31;3.28;;;1.52;;
38609;SDS011;24367;51.640;9.566;2024-03-02T04:33:58;2.15;;;1.70;;
38609;SDS011;24367;51.640;9.566;2024-03-02T04:36:24;1.92;;;1.30;;
38609;SDS011;24367;51.640;9.566;2024-03-02T04:38:52;2.20;;;1.50;;
38609;SDS011;24367;51.640;9.566;2024-03-02T04:41:18;2.22;;;1.42;;
38609;SDS011;24367;51.640;9.566;2024-03-02T04:43:45;2.38;;;1.67;;
38609;SDS011;24367;51.640;9.566;2024-03-02T04:46:11;2.33;;;1.60;;
38609;SDS011;24367;51.640;9.566;2024-03-02T04:48:38;2.15;;;1.55;;
38609;SDS011;24367;51.640;9.566;2024-03-02T04:51:04;1.98;;;1.33;;
38609;SDS011;24367;51.640;9.566;2024-03-02T04:53:30;2.55;;;1.63;;
38609;SDS011;24367;51.640;9.566;2024-03-02T04:55:58;2.22;;;1.52;;
38609;SDS011;24367;51.640;9.566;2024-03-02T04:58:45;2.58;;;1.40;;
38609;SDS011;24367;51.640;9.566;2024-03-02T05:01:11;2.15;;;1.40;;
38609;SDS011;24367;51.640;9.566;2024-03-02T05:03:38;1.95;;;1.40;;
38609;SDS011;24367;51.640;9.566;2024-03-02T05:06:04;2.45;;;1.70;;
38609;SDS011;24367;51.640;9.566;2024-03-02T05:08:31;2.30;;;1.77;;
38609;SDS011;24367;51.640;9.566;2024-03-02T05:10:59;2.38;;;1.50;;
38609;SDS011;24367;51.640;9.566;2024-03-02T05:13:45;2.90;;;1.50;;
38609;SDS011;24367;51.640;9.566;2024-03-02T05:16:10;2.60;;;1.60;;
38609;SDS011;24367;51.640;9.566;2024-03-02T05:18:37;2.53;;;1.63;;
38609;SDS011;24367;51.640;9.566;2024-03-02T05:21:04;2.40;;;1.67;;
38609;SDS011;24367;51.640;9.566;2024-03-02T05:23:30;2.13;;;1.38;;
38609;SDS011;24367;51.640;9.566;2024-03-02T05:25:58;2.25;;;1.50;;
38609;SDS011;24367;51.640;9.566;2024-03-02T05:28:25;1.65;;;1.20;;
38609;SDS011;24367;51.640;9.566;2024-03-02T05:30:51;2.33;;;1.42;;
38609;SDS011;24367;51.640;9.566;2024-03-02T05:33:18;1.55;;;1.20;;
38609;SDS011;24367;51.640;9.566;2024-03-02T05:35:47;2.05;;;1.38;;
38609;SDS011;24367;51.640;9.566;2024-03-02T05:38:14;2.17;;;1.48;;
38609;SDS011;24367;51.640;9.566;2024-03-02T05:40:41;2.40;;;1.70;;
38609;SDS011;24367;51.640;9.566;2024-03-02T05:43:09;1.80;;;1.23;;
38609;SDS011;24367;51.640;9.566;2024-03-02T05:45:35;2.22;;;1.50;;
38609;SDS011;24367;51.640;9.566;2024-03-02T05:48:02;2.22;;;1.63;;
38609;SDS011;24367;51.640;9.566;2024-03-02T05:50:28;2.00;;;1.40;;
38609;SDS011;24367;51.640;9.566;2024-03-02T05:52:55;2.38;;;1.42;;
38609;SDS011;24367;51.640;9.566;2024-03-02T05:55:21;2.20;;;1.50;;
38609;SDS011;24367;51.640;9.566;2024-03-02T05:57:48;1.88;;;1.30;;
38609;SDS011;24367;51.640;9.566;2024-03-02T06:00:28;2.70;;;1.73;;
38609;SDS011;24367;51.640;9.566;2024-03-02T06:02:56;2.17;;;1.55;;
38609;SDS011;24367;51.640;9.566;2024-03-02T06:05:23;1.88;;;1.20;;
38609;SDS011;24367;51.640;9.566;2024-03-02T06:07:49;2.03;;;1.30;;
38609;SDS011;24367;51.640;9.566;2024-03-02T06:10:16;2.00;;;1.42;;
38609;SDS011;24367;51.640;9.566;2024-03-02T06:12:42;1.88;;;1.23;;
38609;SDS011;24367;51.640;9.566;2024-03-02T06:15:09;2.28;;;1.50;;
38609;SDS011;24367;51.640;9.566;2024-03-02T06:17:37;2.13;;;1.35;;
38609;SDS011;24367;51.640;9.566;2024-03-02T06:20:04;2.28;;;1.55;;
38609;SDS011;24367;51.640;9.566;2024-03-02T06:22:33;2.10;;;1.40;;
38609;SDS011;24367;51.640;9.566;2024-03-02T06:25:00;2.00;;;1.40;;
38609;SDS011;24367;51.640;9.566;2024-03-02T06:27:26;2.45;;;1.60;;
38609;SDS011;24367;51.640;9.566;2024-03-02T06:29:52;2.92;;;1.58;;
38609;SDS011;24367;51.640;9.566;2024-03-02T06:32:20;2.22;;;1.50;;
38609;SDS011;24367;51.640;9.566;2024-03-02T06:34:47;2.38;;;1.65;;
38609;SDS011;24367;51.640;9.566;2024-03-02T06:37:14;2.15;;;1.75;;
38609;SDS011;24367;51.640;9.566;2024-03-02T06:39:41;2.58;;;1.70;;
38609;SDS011;24367;51.640;9.566;2024-03-02T06:42:07;2.22;;;1.50;;
38609;SDS011;24367;51.640;9.566;2024-03-02T06:44:34;2.08;;;1.30;;
38609;SDS011;24367;51.640;9.566;2024-03-02T06:47:00;2.33;;;1.58;;
38609;SDS011;24367;51.640;9.566;2024-03-02T06:49:26;7.40;;;5.10;;
38609;SDS011;24367;51.640;9.566;2024-03-02T06:51:54;9.25;;;7.75;;
38609;SDS011;24367;51.640;9.566;2024-03-02T06:54:21;9.50;;;8.38;;
38609;SDS011;24367;51.640;9.566;2024-03-02T06:56:47;8.65;;;7.85;;
38609;SDS011;24367;51.640;9.566;2024-03-02T06:59:13;10.50;;;9.50;;
38609;SDS011;24367;51.640;9.566;2024-03-02T07:01:40;10.25;;;9.25;;
38609;SDS011;24367;51.640;9.566;2024-03-02T07:04:07;9.80;;;8.18;;
38609;SDS011;24367;51.640;9.566;2024-03-02T07:06:33;7.03;;;6.32;;
38609;SDS011;24367;51.640;9.566;2024-03-02T07:09:01;6.97;;;5.95;;
38609;SDS011;24367;51.640;9.566;2024-03-02T07:11:27;6.15;;;4.70;;
38609;SDS011;24367;51.640;9.566;2024-03-02T07:13:53;5.85;;;4.55;;
38609;SDS011;24367;51.640;9.566;2024-03-02T07:16:20;5.80;;;4.07;;
38609;SDS011;24367;51.640;9.566;2024-03-02T07:18:53;5.65;;;4.28;;
38609;SDS011;24367;51.640;9.566;2024-03-02T07:21:21;6.10;;;3.95;;
38609;SDS011;24367;51.640;9.566;2024-03-02T07:23:48;4.63;;;3.05;;
38609;SDS011;24367;51.640;9.566;2024-03-02T07:26:16;4.47;;;2.95;;
38609;SDS011;24367;51.640;9.566;2024-03-02T07:28:44;4.82;;;3.17;;
38609;SDS011;24367;51.640;9.566;2024-03-02T07:31:11;4.20;;;3.00;;
38609;SDS011;24367;51.640;9.566;2024-03-02T07:33:38;4.82;;;3.38;;
38609;SDS011;24367;51.640;9.566;2024-03-02T07:36:04;4.15;;;2.72;;
38609;SDS011;24367;51.640;9.566;2024-03-02T07:38:31;5.82;;;3.10;;
38609;SDS011;24367;51.640;9.566;2024-03-02T07:40:59;4.75;;;3.00;;
38609;SDS011;24367;51.640;9.566;2024-03-02T07:43:26;4.00;;;3.10;;
38609;SDS011;24367;51.640;9.566;2024-03-02T07:45:53;4.63;;;2.80;;
38609;SDS011;24367;51.640;9.566;2024-03-02T07:48:20;4.35;;;2.80;;
38609;SDS011;24367;51.640;9.566;2024-03-02T07:50:47;3.92;;;2.50;;
38609;SDS011;24367;51.640;9.566;2024-03-02T07:53:13;3.80;;;3.05;;
38609;SDS011;24367;51.640;9.566;2024-03-02T07:55:40;3.83;;;2.78;;
38609;SDS011;24367;51.640;9.566;2024-03-02T07:58:06;3.38;;;2.33;;
38609;SDS011;24367;51.640;9.566;2024-03-02T08:00:34;4.10;;;3.17;;
38609;SDS011;24367;51.640;9.566;2024-03-02T08:03:01;4.03;;;2.95;;
38609;SDS011;24367;51.640;9.566;2024-03-02T08:05:28;5.57;;;3.30;;
38609;SDS011;24367;51.640;9.566;2024-03-02T08:07:54;4.03;;;3.28;;
38609;SDS011;24367;51.640;9.566;2024-03-02T08:10:21;4.97;;;3.00;;
38609;SDS011;24367;51.640;9.566;2024-03-02T08:12:47;5.63;;;3.15;;
38609;SDS011;24367;51.640;9.566;2024-03-02T08:15:14;4.65;;;3.65;;
38609;SDS011;24367;51.640;9.566;2024-03-02T08:17:42;4.25;;;3.10;;
38609;SDS011;24367;51.640;9.566;2024-03-02T08:20:13;4.80;;;3.17;;
38609;SDS011;24367;51.640;9.566;2024-03-02T08:22:40;4.55;;;3.00;;
38609;SDS011;24367;51.640;9.566;2024-03-02T08:25:06;3.42;;;2.70;;
38609;SDS011;24367;51.640;9.566;2024-03-02T08:27:34;3.58;;;2.70;;
38609;SDS011;24367;51.640;9.566;2024-03-02T08:30:01;4.10;;;3.10;;
38609;SDS011;24367;51.640;9.566;2024-03-02T08:32:31;7.47;;;3.10;;
38609;SDS011;24367;51.640;9.566;2024-03-02T08:34:59;4.57;;;2.80;;
38609;SDS011;24367;51.640;9.566;2024-03-02T08:37:25;4.90;;;3.10;;
38609;SDS011;24367;51.640;9.566;2024-03-02T08:39:51;3.65;;;2.75;;
38609;SDS011;24367;51.640;9.566;2024-03-02T08:42:18;5.05;;;2.75;;
38609;SDS011;24367;51.640;9.566;2024-03-02T08:44:44;11.60;;;3.10;;
38609;SDS011;24367;51.640;9.566;2024-03-02T08:47:11;4.28;;;2.65;;
38609;SDS011;24367;51.640;9.566;2024-03-02T08:49:37;3.83;;;2.65;;
38609;SDS011;24367;51.640;9.566;2024-03-02T08:52:05;5.22;;;2.95;;
38609;SDS011;24367;51.640;9.566;2024-03-02T08:54:32;6.03;;;3.50;;
38609;SDS011;24367;51.640;9.566;2024-03-02T08:57:00;3.60;;;2.78;;
38609;SDS011;24367;51.640;9.566;2024-03-02T08:59:27;4.05;;;2.67;;
38609;SDS011;24367;51.640;9.566;2024-03-02T09:01:53;4.72;;;2.70;;
38609;SDS011;24367;51.640;9.566;2024-03-02T09:04:20;3.55;;;2.75;;
38609;SDS011;24367;51.640;9.566;2024-03-02T09:06:46;6.72;;;2.90;;
38609;SDS011;24367;51.640;9.566;2024-03-02T09:09:14;7.70;;;3.50;;
38609;SDS011;24367;51.640;9.566;2024-03-02T09:11:41;22.85;;;4.03;;
38609;SDS011;24367;51.640;9.566;2024-03-02T09:14:07;6.10;;;2.70;;
38609;SDS011;24367;51.640;9.566;2024-03-02T09:16:34;5.90;;;2.88;;
38609;SDS011;24367;51.640;9.566;2024-03-02T09:19:00;3.55;;;2.67;;
38609;SDS011;24367;51.640;9.566;2024-03-02T09:21:27;6.78;;;2.97;;
38609;SDS011;24367;51.640;9.566;2024-03-02T09:23:55;5.88;;;2.90;;
38609;SDS011;24367;51.640;9.566;2024-03-02T09:26:23;5.15;;;2.88;;
38609;SDS011;24367;51.640;9.566;2024-03-02T09:28:50;10.75;;;4.93;;
38609;SDS011;24367;51.640;9.566;2024-03-02T09:31:15;17.50;;;13.55;;
38609;SDS011;24367;51.640;9.566;2024-03-02T09:33:42;17.98;;;13.25;;
38609;SDS011;24367;51.640;9.566;2024-03-02T09:36:16;18.50;;;14.23;;
38609;SDS011;24367;51.640;9.566;2024-03-02T09:38:43;16.38;;;12.73;;
38609;SDS011;24367;51.640;9.566;2024-03-02T09:41:10;15.40;;;11.73;;
38609;SDS011;24367;51.640;9.566;2024-03-02T09:43:38;16.92;;;15.18;;
38609;SDS011;24367;51.640;9.566;2024-03-02T09:46:05;12.77;;;11.48;;
38609;SDS011;24367;51.640;9.566;2024-03-02T09:48:31;10.50;;;9.40;;
38609;SDS011;24367;51.640;9.566;2024-03-02T09:50:58;11.25;;;9.00;;
38609;SDS011;24367;51.640;9.566;2024-03-02T09:53:25;10.48;;;8.32;;
38609;SDS011;24367;51.640;9.566;2024-03-02T09:55:55;14.32;;;11.20;;
38609;SDS011;24367;51.640;9.566;2024-03-02T09:58:22;12.50;;;11.20;;
38609;SDS011;24367;51.640;9.566;2024-03-02T10:00:50;15.48;;;12.95;;
38609;SDS011;24367;51.640;9.566;2024-03-02T10:03:18;14.70;;;13.13;;
38609;SDS011;24367;51.640;9.566;2024-03-02T10:05:46;16.65;;;13.57;;
38609;SDS011;24367;51.640;9.566;2024-03-02T10:08:12;16.58;;;13.57;;
38609;SDS011;24367;51.640;9.566;2024-03-02T10:10:39;16.42;;;10.80;;
38609;SDS011;24367;51.640;9.566;2024-03-02T10:13:08;16.65;;;9.50;;
38609;SDS011;24367;51.640;9.566;2024-03-02T10:15:36;12.48;;;9.07;;
38609;SDS011;24367;51.640;9.566;2024-03-02T10:18:05;10.82;;;7.60;;
38609;SDS011;24367;51.640;9.566;2024-03-02T10:20:31;12.73;;;7.32;;
38609;SDS011;24367;51.640;9.566;2024-03-02T10:23:09;11.23;;;6.20;;
38609;SDS011;24367;51.640;9.566;2024-03-02T10:25:36;10.32;;;7.38;;
38609;SDS011;24367;51.640;9.566;2024-03-02T10:28:03;24.83;;;11.85;;
38609;SDS011;24367;51.640;9.566;2024-03-02T10:30:31;25.50;;;12.60;;
38609;SDS011;24367;51.640;9.566;2024-03-02T10:32:58;18.75;;;12.70;;
38609;SDS011;24367;51.640;9.566;2024-03-02T10:35:26;36.15;;;30.90;;
38609;SDS011;24367;51.640;9.566;2024-03-02T10:37:52;28.77;;;22.17;;
38609;SDS011;24367;51.640;9.566;2024-03-02T10:40:21;22.10;;;17.63;;
38609;SDS011;24367;51.640;9.566;2024-03-02T10:42:47;23.13;;;17.58;;
38609;SDS011;24367;51.640;9.566;2024-03-02T10:45:14;19.98;;;16.20;;
38609;SDS011;24367;51.640;9.566;2024-03-02T10:47:42;23.13;;;15.18;;
38609;SDS011;24367;51.640;9.566;2024-03-02T10:50:09;20.58;;;14.70;;
38609;SDS011;24367;51.640;9.566;2024-03-02T10:52:37;17.35;;;13.38;;
38609;SDS011;24367;51.640;9.566;2024-03-02T10:55:05;15.73;;;12.77;;
38609;SDS011;24367;51.640;9.566;2024-03-02T10:57:36;19.05;;;12.07;;
38609;SDS011;24367;51.640;9.566;2024-03-02T11:00:08;17.73;;;11.63;;
38609;SDS011;24367;51.640;9.566;2024-03-02T11:02:40;14.98;;;11.48;;
38609;SDS011;24367;51.640;9.566;2024-03-02T11:05:09;17.35;;;9.98;;
38609;SDS011;24367;51.640;9.566;2024-03-02T11:07:38;20.45;;;10.48;;
38609;SDS011;24367;51.640;9.566;2024-03-02T11:10:06;12.00;;;10.07;;
38609;SDS011;24367;51.640;9.566;2024-03-02T11:12:36;16.27;;;9.65;;
38609;SDS011;24367;51.640;9.566;2024-03-02T11:15:05;14.38;;;9.43;;
38609;SDS011;24367;51.640;9.566;2024-03-02T11:17:35;17.25;;;11.38;;
38609;SDS011;24367;51.640;9.566;2024-03-02T11:20:02;16.83;;;9.90;;
38609;SDS011;24367;51.640;9.566;2024-03-02T11:22:29;15.90;;;9.10;;
38609;SDS011;24367;51.640;9.566;2024-03-02T11:24:57;18.55;;;10.30;;
38609;SDS011;24367;51.640;9.566;2024-03-02T11:33:23;30.98;;;17.20;;
38609;SDS011;24367;51.640;9.566;2024-03-02T11:35:52;25.25;;;15.02;;
38609;SDS011;24367;51.640;9.566;2024-03-02T11:38:19;25.17;;;14.32;;
38609;SDS011;24367;51.640;9.566;2024-03-02T11:40:46;21.85;;;13.75;;
38609;SDS011;24367;51.640;9.566;2024-03-02T11:43:13;31.02;;;14.85;;
38609;SDS011;24367;51.640;9.566;2024-03-02T11:45:41;24.98;;;14.07;;
38609;SDS011;24367;51.640;9.566;2024-03-02T11:48:09;30.08;;;12.52;;
38609;SDS011;24367;51.640;9.566;2024-03-02T11:50:39;22.50;;;13.32;;
38609;SDS011;24367;51.640;9.566;2024-03-02T11:53:07;21.20;;;12.55;;
38609;SDS011;24367;51.640;9.566;2024-03-02T11:55:35;24.20;;;12.60;;
38609;SDS011;24367;51.640;9.566;2024-03-02T11:58:03;27.45;;;12.65;;
38609;SDS011;24367;51.640;9.566;2024-03-02T12:00:30;26.42;;;12.57;;
38609;SDS011;24367;51.640;9.566;2024-03-02T12:02:59;25.92;;;13.02;;
38609;SDS011;24367;51.640;9.566;2024-03-02T12:05:26;20.92;;;11.20;;
38609;SDS011;24367;51.640;9.566;2024-03-02T12:07:55;17.67;;;11.15;;
38609;SDS011;24367;51.640;9.566;2024-03-02T12:10:22;24.42;;;12.45;;
38609;SDS011;24367;51.640;9.566;2024-03-02T12:12:54;20.75;;;11.95;;
38609;SDS011;24367;51.640;9.566;2024-03-02T12:15:23;18.67;;;10.77;;
38609;SDS011;24367;51.640;9.566;2024-03-02T12:17:52;19.02;;;11.45;;
38609;SDS011;24367;51.640;9.566;2024-03-02T12:20:20;24.13;;;11.82;;
38609;SDS011;24367;51.640;9.566;2024-03-02T12:22:46;18.92;;;10.43;;
38609;SDS011;24367;51.640;9.566;2024-03-02T12:25:13;19.80;;;10.93;;
38609;SDS011;24367;51.640;9.566;2024-03-02T12:27:40;18.50;;;10.13;;
38609;SDS011;24367;51.640;9.566;2024-03-02T12:30:06;16.40;;;10.25;;
38609;SDS011;24367;51.640;9.566;2024-03-02T12:32:37;17.65;;;10.35;;
38609;SDS011;24367;51.640;9.566;2024-03-02T12:35:04;19.30;;;10.00;;
38609;SDS011;24367;51.640;9.566;2024-03-02T12:37:31;18.63;;;8.93;;
38609;SDS011;24367;51.640;9.566;2024-03-02T12:39:58;22.40;;;10.05;;
38609;SDS011;24367;51.640;9.566;2024-03-02T12:42:25;22.25;;;9.90;;
38609;SDS011;24367;51.640;9.566;2024-03-02T12:44:52;19.23;;;9.70;;
38609;SDS011;24367;51.640;9.566;2024-03-02T12:47:19;20.55;;;9.02;;
38609;SDS011;24367;51.640;9.566;2024-03-02T12:49:47;18.63;;;9.20;;
38609;SDS011;24367;51.640;9.566;2024-03-02T12:52:16;15.50;;;8.73;;
38609;SDS011;24367;51.640;9.566;2024-03-02T12:54:43;20.10;;;10.52;;
38609;SDS011;24367;51.640;9.566;2024-03-02T12:57:10;14.30;;;8.80;;
38609;SDS011;24367;51.640;9.566;2024-03-02T12:59:36;17.30;;;8.50;;
38609;SDS011;24367;51.640;9.566;2024-03-02T13:02:03;17.20;;;9.50;;
38609;SDS011;24367;51.640;9.566;2024-03-02T13:04:29;19.02;;;9.50;;
38609;SDS011;24367;51.640;9.566;2024-03-02T13:06:57;19.90;;;8.77;;
38609;SDS011;24367;51.640;9.566;2024-03-02T13:09:24;14.20;;;8.15;;
38609;SDS011;24367;51.640;9.566;2024-03-02T13:11:50;13.30;;;7.95;;
38609;SDS011;24367;51.640;9.566;2024-03-02T13:14:17;17.52;;;8.57;;
38609;SDS011;24367;51.640;9.566;2024-03-02T13:16:44;15.55;;;7.72;;
38609;SDS011;24367;51.640;9.566;2024-03-02T13:19:12;12.80;;;5.80;;
38609;SDS011;24367;51.640;9.566;2024-03-02T13:21:38;6.80;;;3.80;;
38609;SDS011;24367;51.640;9.566;2024-03-02T13:24:07;6.28;;;3.28;;
38609;SDS011;24367;51.640;9.566;2024-03-02T13:26:33;4.65;;;2.40;;
38609;SDS011;24367;51.640;9.566;2024-03-02T13:29:00;3.80;;;2.17;;
38609;SDS011;24367;51.640;9.566;2024-03-02T13:31:26;4.43;;;1.92;;
38609;SDS011;24367;51.640;9.566;2024-03-02T13:33:53;6.35;;;2.00;;
38609;SDS011;24367;51.640;9.566;2024-03-02T13:36:19;3.92;;;2.05;;
38609;SDS011;24367;51.640;9.566;2024-03-02T13:38:46;4.95;;;2.00;;
38609;SDS011;24367;51.640;9.566;2024-03-02T13:41:14;3.80;;;1.83;;
38609;SDS011;24367;51.640;9.566;2024-03-02T13:43:40;3.20;;;1.60;;
38609;SDS011;24367;51.640;9.566;2024-03-02T13:46:07;3.47;;;1.70;;
38609;SDS011;24367;51.640;9.566;2024-03-02T13:48:35;4.32;;;2.05;;
38609;SDS011;24367;51.640;9.566;2024-03-02T13:51:01;4.53;;;1.70;;
38609;SDS011;24367;51.640;9.566;2024-03-02T13:53:29;3.50;;;1.60;;
38609;SDS011;24367;51.640;9.566;2024-03-02T13:55:57;3.30;;;1.80;;
38609;SDS011;24367;51.640;9.566;2024-03-02T13:58:25;4.07;;;2.10;;
38609;SDS011;24367;51.640;9.566;2024-03-02T14:00:52;4.60;;;2.10;;
38609;SDS011;24367;51.640;9.566;2024-03-02T14:03:18;4.25;;;2.10;;
38609;SDS011;24367;51.640;9.566;2024-03-02T14:05:45;4.50;;;1.98;;
38609;SDS011;24367;51.640;9.566;2024-03-02T14:08:12;4.90;;;2.40;;
38609;SDS011;24367;51.640;9.566;2024-03-02T14:10:38;5.90;;;2.33;;
38609;SDS011;24367;51.640;9.566;2024-03-02T14:13:05;4.68;;;2.00;;
38609;SDS011;24367;51.640;9.566;2024-03-02T14:15:33;5.45;;;2.15;;
38609;SDS011;24367;51.640;9.566;2024-03-02T14:18:03;4.25;;;1.80;;
38609;SDS011;24367;51.640;9.566;2024-03-02T14:20:30;6.50;;;1.90;;
38609;SDS011;24367;51.640;9.566;2024-03-02T14:22:58;7.50;;;2.33;;
38609;SDS011;24367;51.640;9.566;2024-03-02T14:25:25;7.20;;;2.42;;
38609;SDS011;24367;51.640;9.566;2024-03-02T14:27:51;8.18;;;2.17;;
38609;SDS011;24367;51.640;9.566;2024-03-02T14:30:17;7.55;;;1.95;;
38609;SDS011;24367;51.640;9.566;2024-03-02T14:32:45;5.20;;;2.25;;
38609;SDS011;24367;51.640;9.566;2024-03-02T14:35:12;10.48;;;2.72;;
38609;SDS011;24367;51.640;9.566;2024-03-02T14:37:38;7.65;;;3.28;;
38609;SDS011;24367;51.640;9.566;2024-03-02T14:40:05;8.43;;;2.72;;
38609;SDS011;24367;51.640;9.566;2024-03-02T14:42:34;7.72;;;2.78;;
38609;SDS011;24367;51.640;9.566;2024-03-02T14:45:01;11.57;;;2.78;;
38609;SDS011;24367;51.640;9.566;2024-03-02T14:47:29;10.05;;;3.08;;